createdAt,value
2023-02-04T00:00:19.530Z,1034.42
2023-02-04T00:01:20.127Z,1034.37
2023-02-04T00:02:20.776Z,1034.32
2023-02-04T00:03:21.420Z,1034.38
2023-02-04T00:04:22.022Z,1034.32
2023-02-04T00:05:22.616Z,1034.33
2023-02-04T00:06:23.219Z,1034.37
2023-02-04T00:07:23.821Z,1034.36
2023-02-04T00:08:24.428Z,1034.33
2023-02-04T00:09:25.023Z,1034.36
2023-02-04T00:11:41.046Z,1034.26
2023-02-04T00:12:41.650Z,1034.36
2023-02-04T00:13:42.320Z,1034.34
2023-02-04T00:14:42.965Z,1034.27
2023-02-04T00:15:44.380Z,1034.34
2023-02-04T00:16:44.962Z,1034.27
2023-02-04T00:17:45.568Z,1034.35
2023-02-04T00:18:46.162Z,1034.38
2023-02-04T00:19:46.755Z,1034.26
2023-02-04T00:20:47.357Z,1034.28
2023-02-04T00:21:47.959Z,1034.27
2023-02-04T00:22:48.562Z,1034.31
2023-02-04T00:23:49.232Z,1034.34
2023-02-04T00:24:49.838Z,1034.34
2023-02-04T00:25:50.429Z,1034.35
2023-02-04T00:26:51.090Z,1034.37
2023-02-04T00:27:51.739Z,1034.39
2023-02-04T00:28:52.334Z,1034.36
2023-02-04T00:29:52.928Z,1034.33
2023-02-04T00:30:54.379Z,1034.34
2023-02-04T00:31:55.175Z,1034.27
2023-02-04T00:32:55.853Z,1034.37
2023-02-04T00:33:56.448Z,1034.35
2023-02-04T00:34:57.892Z,1034.38
2023-02-04T00:35:58.600Z,1034.27
2023-02-04T00:36:59.196Z,1034.32
2023-02-04T00:37:59.797Z,1034.40
2023-02-04T00:39:00.400Z,1034.40
2023-02-04T00:40:01.218Z,1034.39
2023-02-04T00:41:01.821Z,1034.37
2023-02-04T00:42:02.428Z,1034.47
2023-02-04T00:43:03.125Z,1034.46
2023-02-04T00:44:03.728Z,1034.37
2023-02-04T00:45:04.332Z,1034.35
2023-02-04T00:46:04.981Z,1034.34
2023-02-04T00:47:05.596Z,1034.37
2023-02-04T00:48:06.189Z,1034.40
2023-02-04T00:49:06.852Z,1034.35
2023-02-04T00:50:07.453Z,1034.38
2023-02-04T00:51:08.056Z,1034.38
2023-02-04T00:52:08.655Z,1034.32
2023-02-04T00:53:09.243Z,1034.35
2023-02-04T00:54:09.852Z,1034.40
2023-02-04T00:55:10.442Z,1034.35
2023-02-04T00:56:11.101Z,1034.29
2023-02-04T00:57:11.703Z,1034.35
2023-02-04T00:58:12.297Z,1034.34
2023-02-04T00:59:12.897Z,1034.33
2023-02-04T01:00:14.291Z,1034.25
2023-02-04T01:01:14.934Z,1034.36
2023-02-04T01:02:17.160Z,1034.34
2023-02-04T01:03:17.136Z,1034.36
2023-02-04T01:04:17.736Z,1034.29
2023-02-04T01:05:18.449Z,1034.35
2023-02-04T01:06:19.123Z,1034.28
2023-02-04T01:07:19.780Z,1034.31
2023-02-04T01:08:20.417Z,1034.25
2023-02-04T01:09:21.012Z,1034.26
2023-02-04T01:10:21.622Z,1034.29
2023-02-04T01:11:22.323Z,1034.32
2023-02-04T01:12:22.966Z,1034.31
2023-02-04T01:13:23.748Z,1034.19
2023-02-04T01:14:24.361Z,1034.26
2023-02-04T01:15:24.957Z,1034.28
2023-02-04T01:16:25.587Z,1034.21
2023-02-04T01:17:26.188Z,1034.23
2023-02-04T01:18:26.785Z,1034.23
2023-02-04T01:19:27.378Z,1034.26
2023-02-04T01:20:28.139Z,1034.15
2023-02-04T01:21:28.832Z,1034.22
2023-02-04T01:22:29.428Z,1034.15
2023-02-04T01:23:30.035Z,1034.17
2023-02-04T01:24:30.615Z,1034.15
2023-02-04T01:25:31.210Z,1034.18
2023-02-04T01:26:31.810Z,1034.17
2023-02-04T01:27:32.402Z,1034.14
2023-02-04T01:28:32.997Z,1034.15
2023-02-04T01:29:33.592Z,1034.14
2023-02-04T01:30:34.255Z,1034.09
2023-02-04T01:31:34.875Z,1034.10
2023-02-04T01:32:35.461Z,1034.13
2023-02-04T01:33:36.054Z,1034.14
2023-02-04T01:34:36.657Z,1034.10
2023-02-04T01:35:37.250Z,1034.07
2023-02-04T01:36:38.694Z,1034.15
2023-02-04T01:37:39.336Z,1034.14
2023-02-04T01:38:39.947Z,1034.13
2023-02-04T01:39:40.534Z,1034.10
2023-02-04T01:40:41.987Z,1034.12
2023-02-04T01:41:42.589Z,1034.14
2023-02-04T01:42:43.241Z,1034.13
2023-02-04T01:43:43.823Z,1034.14
2023-02-04T01:44:44.420Z,1034.18
2023-02-04T01:45:45.073Z,1034.23
2023-02-04T01:46:45.664Z,1034.16
2023-02-04T01:47:46.269Z,1034.27
2023-02-04T01:48:46.869Z,1034.16
2023-02-04T01:49:47.513Z,1034.14
2023-02-04T01:50:48.112Z,1034.21
2023-02-04T01:51:48.714Z,1034.20
2023-02-04T01:52:49.307Z,1034.22
2023-02-04T01:53:49.908Z,1034.27
2023-02-04T01:54:50.500Z,1034.21
2023-02-04T01:55:51.112Z,1034.25
2023-02-04T01:56:51.783Z,1034.29
2023-02-04T01:57:52.433Z,1034.25
2023-02-04T01:58:53.042Z,1034.27
2023-02-04T01:59:53.701Z,1034.26
2023-02-04T02:00:54.337Z,1034.34
2023-02-04T02:01:55.021Z,1034.31
2023-02-04T02:02:55.687Z,1034.29
2023-02-04T02:03:56.268Z,1034.31
2023-02-04T02:04:56.868Z,1034.35
2023-02-04T02:05:57.460Z,1034.34
2023-02-04T02:06:58.065Z,1034.39
2023-02-04T02:07:58.653Z,1034.32
2023-02-04T02:08:59.255Z,1034.37
2023-02-04T02:09:59.920Z,1034.46
2023-02-04T02:11:00.512Z,1034.43
2023-02-04T02:12:01.116Z,1034.38
2023-02-04T02:13:01.728Z,1034.37
2023-02-04T02:14:02.347Z,1034.38
2023-02-04T02:15:02.980Z,1034.34
2023-02-04T02:16:03.582Z,1034.37
2023-02-04T02:17:04.175Z,1034.38
2023-02-04T02:18:04.764Z,1034.34
2023-02-04T02:19:05.366Z,1034.35
2023-02-04T02:20:05.960Z,1034.34
2023-02-04T02:21:06.554Z,1034.27
2023-02-04T02:22:07.159Z,1034.27
2023-02-04T02:23:07.831Z,1034.32
2023-02-04T02:24:08.414Z,1034.32
2023-02-04T02:25:09.008Z,1034.25
2023-02-04T02:26:09.608Z,1034.28
2023-02-04T02:27:10.209Z,1034.24
2023-02-04T02:28:10.824Z,1034.29
2023-02-04T02:29:11.432Z,1034.30
2023-02-04T02:30:12.046Z,1034.32
2023-02-04T02:31:12.705Z,1034.29
2023-02-04T02:32:13.341Z,1034.29
2023-02-04T02:33:13.935Z,1034.31
2023-02-04T02:34:15.334Z,1034.22
2023-02-04T02:35:15.950Z,1034.25
2023-02-04T02:36:16.608Z,1034.22
2023-02-04T02:37:17.209Z,1034.25
2023-02-04T02:38:17.801Z,1034.24
2023-02-04T02:39:18.411Z,1034.28
2023-02-04T02:40:18.999Z,1034.23
2023-02-04T02:41:19.604Z,1034.31
2023-02-04T02:42:20.317Z,1034.23
2023-02-04T02:43:20.913Z,1034.21
2023-02-04T02:44:21.553Z,1034.18
2023-02-04T02:45:22.210Z,1034.27
2023-02-04T02:46:22.838Z,1034.20
2023-02-04T02:47:23.488Z,1034.24
2023-02-04T02:48:24.093Z,1034.18
2023-02-04T02:49:24.685Z,1034.21
2023-02-04T02:50:25.286Z,1034.20
2023-02-04T02:51:25.878Z,1034.24
2023-02-04T02:52:26.473Z,1034.23
2023-02-04T02:53:27.128Z,1034.21
2023-02-04T02:54:27.799Z,1034.23
2023-02-04T02:55:28.407Z,1034.30
2023-02-04T02:56:29.081Z,1034.22
2023-02-04T02:57:29.677Z,1034.26
2023-02-04T02:58:30.276Z,1034.16
2023-02-04T02:59:30.874Z,1034.27
2023-02-04T03:00:31.784Z,1034.24
2023-02-04T03:01:32.611Z,1034.24
2023-02-04T03:02:33.268Z,1034.31
2023-02-04T03:03:33.890Z,1034.26
2023-02-04T03:04:34.488Z,1034.28
2023-02-04T03:05:35.085Z,1034.30
2023-02-04T03:06:35.681Z,1034.26
2023-02-04T03:07:36.283Z,1034.20
2023-02-04T03:08:36.882Z,1034.27
2023-02-04T03:09:37.474Z,1034.27
2023-02-04T03:10:38.121Z,1034.28
2023-02-04T03:11:38.713Z,1034.27
2023-02-04T03:12:39.376Z,1034.27
2023-02-04T03:13:39.976Z,1034.28
2023-02-04T03:14:40.569Z,1034.20
2023-02-04T03:15:41.212Z,1034.30
2023-02-04T03:16:41.800Z,1034.28
2023-02-04T03:17:42.393Z,1034.24
2023-02-04T03:18:42.997Z,1034.22
2023-02-04T03:19:43.603Z,1034.26
2023-02-04T03:20:44.199Z,1034.21
2023-02-04T03:21:44.791Z,1034.23
2023-02-04T03:22:45.386Z,1034.22
2023-02-04T03:23:45.992Z,1034.22
2023-02-04T03:24:46.597Z,1034.21
2023-02-04T03:25:47.194Z,1034.21
2023-02-04T03:26:47.800Z,1034.12
2023-02-04T03:27:48.495Z,1034.11
2023-02-04T03:28:49.084Z,1034.23
2023-02-04T03:29:49.676Z,1034.11
2023-02-04T03:30:50.314Z,1034.16
2023-02-04T03:31:51.081Z,1034.12
2023-02-04T03:32:51.719Z,1034.12
2023-02-04T03:33:52.322Z,1034.20
2023-02-04T03:34:52.930Z,1034.10
2023-02-04T03:35:53.520Z,1034.09
2023-02-04T03:36:54.111Z,1034.01
2023-02-04T03:37:54.706Z,1034.08
2023-02-04T03:38:55.299Z,1034.05
2023-02-04T03:39:55.894Z,1034.10
2023-02-04T03:40:56.496Z,1034.00
2023-02-04T03:41:57.086Z,1034.02
2023-02-04T03:42:57.680Z,1034.02
2023-02-04T03:43:58.283Z,1034.02
2023-02-04T03:44:58.883Z,1034.05
2023-02-04T03:45:59.559Z,1034.05
2023-02-04T03:47:00.142Z,1034.08
2023-02-04T03:48:01.590Z,1034.01
2023-02-04T03:49:02.191Z,1034.04
2023-02-04T03:50:02.786Z,1034.00
2023-02-04T03:51:03.460Z,1034.00
2023-02-04T03:52:04.050Z,1033.97
2023-02-04T03:53:04.807Z,1033.99
2023-02-04T03:54:05.448Z,1034.07
2023-02-04T03:55:06.040Z,1034.02
2023-02-04T03:56:06.632Z,1034.02
2023-02-04T03:57:07.225Z,1034.15
2023-02-04T03:58:08.686Z,1034.07
2023-02-04T03:59:09.338Z,1034.06
2023-02-04T04:00:09.989Z,1034.06
2023-02-04T04:01:10.582Z,1034.14
2023-02-04T04:02:11.176Z,1034.04
2023-02-04T04:03:11.814Z,1034.12
2023-02-04T04:04:12.431Z,1034.00
2023-02-04T04:05:13.039Z,1034.07
2023-02-04T04:06:13.686Z,1034.03
2023-02-04T04:07:14.261Z,1034.00
2023-02-04T04:08:14.864Z,1033.93
2023-02-04T04:09:15.464Z,1034.06
2023-02-04T04:10:16.066Z,1034.02
2023-02-04T04:11:16.666Z,1034.04
2023-02-04T04:12:17.265Z,1034.01
2023-02-04T04:13:17.872Z,1034.06
2023-02-04T04:14:18.464Z,1034.08
2023-02-04T04:15:19.064Z,1034.04
2023-02-04T04:16:19.725Z,1034.06
2023-02-04T04:17:20.312Z,1034.12
2023-02-04T04:18:20.910Z,1034.08
2023-02-04T04:19:21.509Z,1034.08
2023-02-04T04:20:22.103Z,1034.11
2023-02-04T04:21:22.695Z,1034.12
2023-02-04T04:22:23.295Z,1034.15
2023-02-04T04:23:23.888Z,1034.08
2023-02-04T04:24:24.482Z,1034.09
2023-02-04T04:25:25.090Z,1034.06
2023-02-04T04:26:25.687Z,1034.05
2023-02-04T04:27:26.285Z,1034.10
2023-02-04T04:28:26.888Z,1034.10
2023-02-04T04:29:27.481Z,1034.12
2023-02-04T04:30:28.090Z,1034.14
2023-02-04T04:31:28.827Z,1034.13
2023-02-04T04:32:29.482Z,1034.05
2023-02-04T04:33:30.083Z,1034.14
2023-02-04T04:34:30.676Z,1034.21
2023-02-04T04:35:31.279Z,1034.15
2023-02-04T04:36:31.876Z,1034.19
2023-02-04T04:37:32.529Z,1034.19
2023-02-04T04:38:33.127Z,1034.25
2023-02-04T04:39:33.767Z,1034.18
2023-02-04T04:40:34.617Z,1034.23
2023-02-04T04:41:35.295Z,1034.22
2023-02-04T04:42:35.894Z,1034.21
2023-02-04T04:43:36.480Z,1034.18
2023-02-04T04:44:37.084Z,1034.20
2023-02-04T04:45:37.671Z,1034.19
2023-02-04T04:46:38.358Z,1034.18
2023-02-04T04:47:38.981Z,1034.19
2023-02-04T04:48:39.581Z,1034.18
2023-02-04T04:49:40.173Z,1034.27
2023-02-04T04:50:40.774Z,1034.18
2023-02-04T04:51:41.377Z,1034.33
2023-02-04T04:52:42.040Z,1034.23
2023-02-04T04:53:42.650Z,1034.23
2023-02-04T04:54:43.385Z,1034.33
2023-02-04T04:55:44.777Z,1034.30
2023-02-04T04:56:45.540Z,1034.30
2023-02-04T04:57:47.041Z,1034.18
2023-02-04T04:58:47.638Z,1034.30
2023-02-04T04:59:48.228Z,1034.27
2023-02-04T05:00:48.934Z,1034.34
2023-02-04T05:01:49.532Z,1034.45
2023-02-04T05:02:50.137Z,1034.39
2023-02-04T05:03:50.728Z,1034.46
2023-02-04T05:04:51.346Z,1034.41
2023-02-04T05:05:51.990Z,1034.37
2023-02-04T05:06:52.582Z,1034.42
2023-02-04T05:07:53.187Z,1034.45
2023-02-04T05:08:53.857Z,1034.40
2023-02-04T05:09:54.454Z,1034.45
2023-02-04T05:10:55.048Z,1034.48
2023-02-04T05:11:55.693Z,1034.49
2023-02-04T05:12:56.355Z,1034.42
2023-02-04T05:13:56.949Z,1034.44
2023-02-04T05:14:57.545Z,1034.37
2023-02-04T05:15:58.147Z,1034.45
2023-02-04T05:16:58.735Z,1034.42
2023-02-04T05:17:59.330Z,1034.41
2023-02-04T05:18:59.924Z,1034.40
2023-02-04T05:20:00.598Z,1034.40
2023-02-04T05:21:01.195Z,1034.39
2023-02-04T05:22:01.794Z,1034.40
2023-02-04T05:23:05.126Z,1034.33
2023-02-04T05:24:03.964Z,1034.42
2023-02-04T05:25:04.571Z,1034.32
2023-02-04T05:26:05.159Z,1034.30
2023-02-04T05:27:05.749Z,1034.42
2023-02-04T05:28:06.421Z,1034.36
2023-02-04T05:29:07.038Z,1034.36
2023-02-04T05:30:07.642Z,1034.32
2023-02-04T05:31:08.443Z,1034.31
2023-02-04T05:32:09.048Z,1034.34
2023-02-04T05:33:09.641Z,1034.29
2023-02-04T05:34:10.295Z,1034.28
2023-02-04T05:35:10.887Z,1034.27
2023-02-04T05:36:11.487Z,1034.36
2023-02-04T05:37:12.087Z,1034.32
2023-02-04T05:38:12.680Z,1034.32
2023-02-04T05:39:13.280Z,1034.25
2023-02-04T05:40:13.869Z,1034.31
2023-02-04T05:41:14.463Z,1034.35
2023-02-04T05:42:15.088Z,1034.30
2023-02-04T05:43:15.679Z,1034.28
2023-02-04T05:44:16.281Z,1034.28
2023-02-04T05:45:16.881Z,1034.31
2023-02-04T05:46:17.501Z,1034.37
2023-02-04T05:47:18.136Z,1034.34
2023-02-04T05:48:18.731Z,1034.32
2023-02-04T05:49:19.332Z,1034.31
2023-02-04T05:50:19.924Z,1034.25
2023-02-04T05:51:21.321Z,1034.31
2023-02-04T05:52:21.920Z,1034.22
2023-02-04T05:53:22.518Z,1034.30
2023-02-04T05:54:23.123Z,1034.24
2023-02-04T05:55:24.630Z,1034.23
2023-02-04T05:56:25.224Z,1034.27
2023-02-04T05:57:25.818Z,1034.32
2023-02-04T05:58:26.463Z,1034.26
2023-02-04T05:59:27.110Z,1034.25
2023-02-04T06:00:27.706Z,1034.28
2023-02-04T06:01:28.314Z,1034.35
2023-02-04T06:02:28.904Z,1034.29
2023-02-04T06:03:29.565Z,1034.35
2023-02-04T06:04:30.331Z,1034.27
2023-02-04T06:05:30.925Z,1034.28
2023-02-04T06:06:31.574Z,1034.39
2023-02-04T06:07:32.182Z,1034.35
2023-02-04T06:08:32.781Z,1034.36
2023-02-04T06:09:33.389Z,1034.43
2023-02-04T06:10:34.161Z,1034.41
2023-02-04T06:11:34.653Z,1034.42
2023-02-04T06:12:35.299Z,1034.42
2023-02-04T06:13:35.904Z,1034.39
2023-02-04T06:14:36.502Z,1034.37
2023-02-04T06:15:37.109Z,1034.41
2023-02-04T06:16:37.784Z,1034.35
2023-02-04T06:17:38.403Z,1034.37
2023-02-04T06:18:39.014Z,1034.39
2023-02-04T06:19:39.598Z,1034.42
2023-02-04T06:20:40.246Z,1034.36
2023-02-04T06:21:40.896Z,1034.49
2023-02-04T06:22:41.489Z,1034.33
2023-02-04T06:23:42.210Z,1034.44
2023-02-04T06:24:42.810Z,1034.44
2023-02-04T06:25:43.405Z,1034.37
2023-02-04T06:26:44.003Z,1034.36
2023-02-04T06:27:44.620Z,1034.40
2023-02-04T06:28:45.211Z,1034.40
2023-02-04T06:29:45.809Z,1034.34
2023-02-04T06:30:47.296Z,1034.44
2023-02-04T06:31:48.047Z,1034.38
2023-02-04T06:32:49.463Z,1034.38
2023-02-04T06:33:50.065Z,1034.37
2023-02-04T06:34:50.666Z,1034.42
2023-02-04T06:35:51.316Z,1034.37
2023-02-04T06:36:51.910Z,1034.45
2023-02-04T06:37:52.571Z,1034.41
2023-02-04T06:38:53.168Z,1034.36
2023-02-04T06:39:54.616Z,1034.38
2023-02-04T06:40:55.226Z,1034.40
2023-02-04T06:41:55.827Z,1034.41
2023-02-04T06:42:56.417Z,1034.45
2023-02-04T06:43:57.015Z,1034.48
2023-02-04T06:44:57.615Z,1034.54
2023-02-04T06:45:58.231Z,1034.52
2023-02-04T06:46:58.936Z,1034.49
2023-02-04T06:47:59.521Z,1034.59
2023-02-04T06:49:00.114Z,1034.58
2023-02-04T06:50:00.716Z,1034.63
2023-02-04T06:51:01.309Z,1034.58
2023-02-04T06:52:01.904Z,1034.65
2023-02-04T06:53:02.570Z,1034.57
2023-02-04T06:54:03.168Z,1034.61
2023-02-04T06:55:03.768Z,1034.67
2023-02-04T06:56:04.362Z,1034.59
2023-02-04T06:57:04.963Z,1034.61
2023-02-04T06:58:05.590Z,1034.69
2023-02-04T06:59:06.190Z,1034.66
2023-02-04T07:00:07.640Z,1034.63
2023-02-04T07:01:08.333Z,1034.65
2023-02-04T07:02:08.976Z,1034.71
2023-02-04T07:03:09.580Z,1034.70
2023-02-04T07:04:10.177Z,1034.69
2023-02-04T07:05:10.836Z,1034.63
2023-02-04T07:06:11.422Z,1034.68
2023-02-04T07:07:12.024Z,1034.64
2023-02-04T07:08:12.612Z,1034.67
2023-02-04T07:09:13.207Z,1034.72
2023-02-04T07:10:13.809Z,1034.75
2023-02-04T07:11:14.397Z,1034.69
2023-02-04T07:12:16.325Z,1034.68
2023-02-04T07:13:16.586Z,1034.61
2023-02-04T07:14:17.184Z,1034.65
2023-02-04T07:15:17.776Z,1034.63
2023-02-04T07:16:18.420Z,1034.58
2023-02-04T07:17:19.004Z,1034.64
2023-02-04T07:18:19.606Z,1034.63
2023-02-04T07:19:21.245Z,1034.67
2023-02-04T07:20:21.800Z,1034.62
2023-02-04T07:21:22.384Z,1034.63
2023-02-04T07:22:22.992Z,1034.55
2023-02-04T07:23:23.574Z,1034.61
2023-02-04T07:24:24.978Z,1034.58
2023-02-04T07:25:25.649Z,1034.59
2023-02-04T07:26:26.233Z,1034.59
2023-02-04T07:27:26.825Z,1034.59
2023-02-04T07:28:27.416Z,1034.70
2023-02-04T07:29:28.010Z,1034.68
2023-02-04T07:30:28.614Z,1034.63
2023-02-04T07:31:29.290Z,1034.58
2023-02-04T07:32:29.965Z,1034.57
2023-02-04T07:33:30.550Z,1034.62
2023-02-04T07:34:31.150Z,1034.57
2023-02-04T07:35:31.748Z,1034.61
2023-02-04T07:36:32.351Z,1034.65
2023-02-04T07:37:32.942Z,1034.67
2023-02-04T07:38:33.580Z,1034.67
2023-02-04T07:39:34.244Z,1034.60
2023-02-04T07:40:35.036Z,1034.60
2023-02-04T07:41:35.924Z,1034.60
2023-02-04T07:42:36.529Z,1034.61
2023-02-04T07:43:37.191Z,1034.62
2023-02-04T07:44:37.782Z,1034.61
2023-02-04T07:45:38.379Z,1034.58
2023-02-04T07:46:39.159Z,1034.61
2023-02-04T07:47:39.766Z,1034.64
2023-02-04T07:48:40.369Z,1034.61
2023-02-04T07:49:40.964Z,1034.64
2023-02-04T07:50:41.553Z,1034.72
2023-02-04T07:51:42.156Z,1034.75
2023-02-04T07:52:42.745Z,1034.66
2023-02-04T07:53:43.337Z,1034.73
2023-02-04T07:54:43.984Z,1034.70
2023-02-04T07:55:44.576Z,1034.71
2023-02-04T07:56:45.176Z,1034.71
2023-02-04T07:57:45.767Z,1034.71
2023-02-04T07:58:46.368Z,1034.80
2023-02-04T07:59:46.967Z,1034.83
2023-02-04T08:00:47.570Z,1034.75
2023-02-04T08:01:48.231Z,1034.85
2023-02-04T08:02:48.862Z,1034.85
2023-02-04T08:03:49.466Z,1034.76
2023-02-04T08:04:50.060Z,1034.76
2023-02-04T08:05:50.654Z,1034.78
2023-02-04T08:06:51.267Z,1034.88
2023-02-04T08:07:51.851Z,1034.90
2023-02-04T08:08:52.448Z,1034.90
2023-02-04T08:09:53.040Z,1034.86
2023-02-04T08:10:53.631Z,1034.89
2023-02-04T08:11:54.245Z,1034.86
2023-02-04T08:12:54.841Z,1034.86
2023-02-04T08:13:55.453Z,1034.92
2023-02-04T08:14:56.194Z,1034.91
2023-02-04T08:15:56.829Z,1034.90
2023-02-04T08:16:57.428Z,1034.86
2023-02-04T08:17:58.877Z,1034.83
2023-02-04T08:18:59.477Z,1034.86
2023-02-04T08:20:00.150Z,1034.86
2023-02-04T08:21:00.762Z,1034.83
2023-02-04T08:22:01.349Z,1034.93
2023-02-04T08:23:01.941Z,1034.87
2023-02-04T08:24:02.540Z,1034.85
2023-02-04T08:25:03.133Z,1034.89
2023-02-04T08:26:03.730Z,1034.84
2023-02-04T08:27:04.323Z,1034.91
2023-02-04T08:28:04.958Z,1034.87
2023-02-04T08:29:05.587Z,1034.96
2023-02-04T08:30:06.174Z,1034.90
2023-02-04T08:31:06.885Z,1034.96
2023-02-04T08:32:07.560Z,1034.87
2023-02-04T08:33:08.214Z,1034.97
2023-02-04T08:34:08.816Z,1034.91
2023-02-04T08:35:09.419Z,1034.93
2023-02-04T08:36:10.062Z,1034.93
2023-02-04T08:37:10.646Z,1034.99
2023-02-04T08:38:11.587Z,1034.92
2023-02-04T08:39:12.301Z,1034.98
2023-02-04T08:40:12.890Z,1034.98
2023-02-04T08:41:13.553Z,1035.08
2023-02-04T08:42:14.148Z,1035.07
2023-02-04T08:43:14.941Z,1034.97
2023-02-04T08:44:15.544Z,1034.99
2023-02-04T08:45:16.939Z,1034.99
2023-02-04T08:46:17.590Z,1035.06
2023-02-04T08:47:18.179Z,1035.01
2023-02-04T08:48:18.789Z,1034.99
2023-02-04T08:49:19.378Z,1035.06
2023-02-04T08:50:19.974Z,1035.10
2023-02-04T08:51:20.579Z,1035.05
2023-02-04T08:52:21.169Z,1035.11
2023-02-04T08:53:21.763Z,1035.01
2023-02-04T08:54:22.358Z,1035.07
2023-02-04T08:55:22.955Z,1035.13
2023-02-04T08:56:23.560Z,1035.12
2023-02-04T08:57:24.158Z,1035.10
2023-02-04T08:58:24.749Z,1035.12
2023-02-04T08:59:25.400Z,1035.18
2023-02-04T09:00:25.992Z,1035.20
2023-02-04T09:01:26.634Z,1035.19
2023-02-04T09:02:27.304Z,1035.24
2023-02-04T09:03:27.906Z,1035.22
2023-02-04T09:04:28.500Z,1035.20
2023-02-04T09:05:29.112Z,1035.18
2023-02-04T09:06:29.704Z,1035.18
2023-02-04T09:07:30.297Z,1035.20
2023-02-04T09:08:30.890Z,1035.18
2023-02-04T09:09:31.493Z,1035.28
2023-02-04T09:10:32.478Z,1035.18
2023-02-04T09:11:33.242Z,1035.23
2023-02-04T09:12:33.860Z,1035.23
2023-02-04T09:13:34.448Z,1035.16
2023-02-04T09:14:35.048Z,1035.23
2023-02-04T09:15:35.730Z,1035.27
2023-02-04T09:16:36.359Z,1035.21
2023-02-04T09:17:36.965Z,1035.30
2023-02-04T09:18:37.555Z,1035.33
2023-02-04T09:19:38.155Z,1035.33
2023-02-04T09:20:38.750Z,1035.32
2023-02-04T09:21:39.359Z,1035.33
2023-02-04T09:22:39.945Z,1035.27
2023-02-04T09:23:40.545Z,1035.34
2023-02-04T09:24:41.146Z,1035.43
2023-02-04T09:25:41.749Z,1035.39
2023-02-04T09:26:42.346Z,1035.38
2023-02-04T09:27:42.948Z,1035.33
2023-02-04T09:28:43.531Z,1035.42
2023-02-04T09:29:44.131Z,1035.35
2023-02-04T09:30:44.813Z,1035.47
2023-02-04T09:31:45.526Z,1035.44
2023-02-04T09:32:46.113Z,1035.47
2023-02-04T09:33:46.714Z,1035.54
2023-02-04T09:34:47.321Z,1035.45
2023-02-04T09:35:47.922Z,1035.44
2023-02-04T09:36:48.508Z,1035.44
2023-02-04T09:37:49.114Z,1035.42
2023-02-04T09:38:49.712Z,1035.38
2023-02-04T09:39:50.304Z,1035.39
2023-02-04T09:40:50.899Z,1035.56
2023-02-04T09:41:51.506Z,1035.42
2023-02-04T09:42:52.097Z,1035.44
2023-02-04T09:43:52.698Z,1035.44
2023-02-04T09:44:53.302Z,1035.42
2023-02-04T09:45:53.953Z,1035.50
2023-02-04T09:46:54.571Z,1035.47
2023-02-04T09:47:55.172Z,1035.52
2023-02-04T09:48:55.779Z,1035.56
2023-02-04T09:49:57.228Z,1035.52
2023-02-04T09:50:57.826Z,1035.51
2023-02-04T09:51:58.535Z,1035.48
2023-02-04T09:52:59.320Z,1035.48
2023-02-04T09:53:59.913Z,1035.50
2023-02-04T09:55:00.527Z,1035.50
2023-02-04T09:56:01.168Z,1035.50
2023-02-04T09:57:01.813Z,1035.51
2023-02-04T09:58:02.428Z,1035.57
2023-02-04T09:59:03.028Z,1035.49
2023-02-04T10:00:03.619Z,1035.55
2023-02-04T10:01:04.304Z,1035.50
2023-02-04T10:02:05.052Z,1035.46
2023-02-04T10:03:05.645Z,1035.56
2023-02-04T10:04:06.237Z,1035.52
2023-02-04T10:05:06.832Z,1035.49
2023-02-04T10:06:07.428Z,1035.55
2023-02-04T10:07:08.024Z,1035.52
2023-02-04T10:08:08.617Z,1035.59
2023-02-04T10:09:09.269Z,1035.62
2023-02-04T10:10:09.959Z,1035.53
2023-02-04T10:11:10.554Z,1035.64
2023-02-04T10:12:11.154Z,1035.61
2023-02-04T10:13:11.755Z,1035.61
2023-02-04T10:14:12.362Z,1035.65
2023-02-04T10:15:12.955Z,1035.64
2023-02-04T10:16:13.558Z,1035.66
2023-02-04T10:17:14.209Z,1035.64
2023-02-04T10:18:14.803Z,1035.63
2023-02-04T10:19:15.405Z,1035.62
2023-02-04T10:20:16.002Z,1035.64
2023-02-04T10:21:16.621Z,1035.63
2023-02-04T10:22:17.207Z,1035.65
2023-02-04T10:23:17.793Z,1035.65
2023-02-04T10:24:18.385Z,1035.68
2023-02-04T10:25:18.977Z,1035.73
2023-02-04T10:26:19.575Z,1035.79
2023-02-04T10:27:20.183Z,1035.70
2023-02-04T10:28:21.687Z,1035.67
2023-02-04T10:29:22.291Z,1035.66
2023-02-04T10:30:22.919Z,1035.67
2023-02-04T10:31:23.622Z,1035.60
2023-02-04T10:32:24.232Z,1035.61
2023-02-04T10:33:24.883Z,1035.66
2023-02-04T10:34:25.488Z,1035.67
2023-02-04T10:35:26.084Z,1035.61
2023-02-04T10:36:26.691Z,1035.64
2023-02-04T10:37:27.283Z,1035.73
2023-02-04T10:38:27.884Z,1035.68
2023-02-04T10:39:28.540Z,1035.67
2023-02-04T10:40:29.132Z,1035.73
2023-02-04T10:41:29.733Z,1035.69
2023-02-04T10:42:30.325Z,1035.72
2023-02-04T10:43:30.925Z,1035.73
2023-02-04T10:44:31.538Z,1035.72
2023-02-04T10:45:32.122Z,1035.70
2023-02-04T10:46:32.725Z,1035.63
2023-02-04T10:47:33.318Z,1035.74
2023-02-04T10:48:33.912Z,1035.64
2023-02-04T10:49:34.506Z,1035.64
2023-02-04T10:50:35.154Z,1035.70
2023-02-04T10:51:35.733Z,1035.60
2023-02-04T10:52:36.324Z,1035.68
2023-02-04T10:53:36.917Z,1035.58
2023-02-04T10:54:37.517Z,1035.62
2023-02-04T10:55:38.116Z,1035.61
2023-02-04T10:56:39.570Z,1035.63
2023-02-04T10:57:40.156Z,1035.62
2023-02-04T10:58:40.798Z,1035.61
2023-02-04T10:59:41.405Z,1035.68
2023-02-04T11:00:41.994Z,1035.71
2023-02-04T11:01:42.607Z,1035.75
2023-02-04T11:02:43.247Z,1035.71
2023-02-04T11:03:45.362Z,1035.74
2023-02-04T11:04:45.498Z,1035.71
2023-02-04T11:05:46.172Z,1035.69
2023-02-04T11:06:46.846Z,1035.65
2023-02-04T11:07:47.442Z,1035.75
2023-02-04T11:08:48.040Z,1035.62
2023-02-04T11:09:48.802Z,1035.69
2023-02-04T11:10:49.379Z,1035.60
2023-02-04T11:11:49.984Z,1035.66
2023-02-04T11:12:50.729Z,1035.60
2023-02-04T11:13:52.172Z,1035.61
2023-02-04T11:14:52.819Z,1035.67
2023-02-04T11:15:53.438Z,1035.61
2023-02-04T11:16:54.025Z,1035.68
2023-02-04T11:17:54.768Z,1035.65
2023-02-04T11:18:55.369Z,1035.58
2023-02-04T11:19:55.964Z,1035.66
2023-02-04T11:20:56.561Z,1035.68
2023-02-04T11:21:57.153Z,1035.67
2023-02-04T11:22:57.756Z,1035.67
2023-02-04T11:23:58.359Z,1035.60
2023-02-04T11:24:58.955Z,1035.65
2023-02-04T11:25:59.554Z,1035.64
2023-02-04T11:27:00.196Z,1035.61
2023-02-04T11:28:00.907Z,1035.63
2023-02-04T11:29:01.495Z,1035.70
2023-02-04T11:30:02.127Z,1035.64
2023-02-04T11:31:02.901Z,1035.64
2023-02-04T11:32:03.525Z,1035.62
2023-02-04T11:33:04.169Z,1035.67
2023-02-04T11:34:04.780Z,1035.64
2023-02-04T11:35:05.374Z,1035.59
2023-02-04T11:36:05.978Z,1035.63
2023-02-04T11:37:06.642Z,1035.59
2023-02-04T11:38:07.244Z,1035.66
2023-02-04T11:39:07.863Z,1035.60
2023-02-04T11:40:08.446Z,1035.65
2023-02-04T11:41:09.039Z,1035.66
2023-02-04T11:42:09.640Z,1035.60
2023-02-04T11:43:10.252Z,1035.60
2023-02-04T11:44:10.839Z,1035.61
2023-02-04T11:45:11.432Z,1035.68
2023-02-04T11:46:28.621Z,1035.60
2023-02-04T11:47:29.270Z,1035.61
2023-02-04T11:48:29.874Z,1035.64
2023-02-04T11:49:30.472Z,1035.67
2023-02-04T11:50:31.085Z,1035.59
2023-02-04T11:51:31.753Z,1035.58
2023-02-04T11:52:32.352Z,1035.57
2023-02-04T11:53:32.940Z,1035.63
2023-02-04T11:54:33.546Z,1035.58
2023-02-04T11:55:34.477Z,1035.51
2023-02-04T11:56:35.178Z,1035.58
2023-02-04T11:57:35.779Z,1035.62
2023-02-04T11:58:36.386Z,1035.58
2023-02-04T11:59:36.978Z,1035.65
2023-02-04T12:00:37.580Z,1035.64
2023-02-04T12:01:38.182Z,1035.64
2023-02-04T12:02:38.813Z,1035.62
2023-02-04T12:03:39.481Z,1035.58
2023-02-04T12:04:40.063Z,1035.64
2023-02-04T12:05:40.700Z,1035.60
2023-02-04T12:06:41.326Z,1035.58
2023-02-04T12:07:41.930Z,1035.68
2023-02-04T12:08:42.576Z,1035.54
2023-02-04T12:09:43.179Z,1035.50
2023-02-04T12:10:43.768Z,1035.53
2023-02-04T12:12:00.935Z,1035.48
2023-02-04T12:13:01.538Z,1035.51
2023-02-04T12:14:02.138Z,1035.53
2023-02-04T12:15:15.357Z,1035.48